Time;durP1;ratioP1;P1;durP2;ratioP2;P2;SDS_P1;SDS_P2;PMS_P1;PMS_P2;Temp;Humidity;BMP_temperature;BMP_pressure;BME280_temperature;BME280_humidity;BME280_pressure;Samples;Min_cycle;Max_cycle;Signal;HPM_P1;HPM_P2
2021/04/09 00:01:46;;;;;;;7.25;4.00;;;-0.80;99.90;;;;;;5055867;28;20399;-75
2021/04/09 00:04:14;;;;;;;7.18;3.65;;;-0.80;99.90;;;;;;5058241;28;20036;-74
2021/04/09 00:06:40;;;;;;;7.18;3.75;;;-0.80;99.90;;;;;;5059812;28;20032;-75
2021/04/09 00:09:10;;;;;;;6.13;4.00;;;-0.80;99.90;;;;;;5058409;28;20041;-75
2021/04/09 00:11:37;;;;;;;5.43;3.85;;;-0.90;99.90;;;;;;5063364;28;20115;-75
2021/04/09 00:14:04;;;;;;;6.55;3.75;;;-0.90;99.90;;;;;;5063487;28;20446;-75
2021/04/09 00:16:31;;;;;;;6.63;3.80;;;-0.90;99.90;;;;;;5062684;28;20036;-75
2021/04/09 00:18:57;;;;;;;7.20;3.92;;;-0.90;99.90;;;;;;5062691;28;20452;-75
2021/04/09 00:21:22;;;;;;;6.38;3.95;;;-0.90;99.90;;;;;;5061847;28;20430;-75
2021/04/09 00:23:48;;;;;;;6.15;3.35;;;-0.90;99.90;;;;;;5061808;28;20079;-75
2021/04/09 00:26:14;;;;;;;7.15;4.05;;;-1.00;99.90;;;;;;5061047;28;20058;-75
2021/04/09 00:28:40;;;;;;;6.72;4.47;;;-1.00;99.90;;;;;;5062779;28;20034;-75
2021/04/09 00:31:06;;;;;;;6.63;3.58;;;-1.00;99.90;;;;;;5062484;28;20090;-75
2021/04/09 00:33:32;;;;;;;7.43;4.07;;;-1.00;99.90;;;;;;5062001;28;20025;-75
2021/04/09 00:35:58;;;;;;;5.95;3.70;;;-1.00;99.90;;;;;;5061847;28;20434;-75
2021/04/09 00:38:23;;;;;;;6.13;3.80;;;-1.10;99.90;;;;;;5063304;28;20035;-75
2021/04/09 00:40:49;;;;;;;6.88;3.65;;;-1.10;99.90;;;;;;5062070;28;20373;-75
2021/04/09 00:43:15;;;;;;;9.23;4.20;;;-1.10;99.90;;;;;;5059381;28;20082;-75
2021/04/09 00:45:41;;;;;;;9.18;4.22;;;-1.10;99.90;;;;;;5060998;28;20025;-75
2021/04/09 00:48:09;;;;;;;5.22;3.90;;;-1.10;99.90;;;;;;5061721;28;20682;-75
2021/04/09 00:50:34;;;;;;;8.20;4.80;;;-1.10;99.90;;;;;;5061030;28;20021;-75
2021/04/09 00:53:03;;;;;;;7.55;3.80;;;-1.00;99.90;;;;;;5060247;28;20545;-75
2021/04/09 00:55:29;;;;;;;4.95;3.65;;;-1.00;99.90;;;;;;5062198;28;20032;-75
2021/04/09 00:57:58;;;;;;;6.32;3.70;;;-1.00;99.90;;;;;;5061450;28;20032;-75
2021/04/09 01:00:25;;;;;;;6.90;3.75;;;-0.90;99.90;;;;;;5088551;28;20033;-75
2021/04/09 01:02:54;;;;;;;7.50;3.90;;;-1.00;99.90;;;;;;5059018;28;20020;-75
2021/04/09 01:05:21;;;;;;;6.85;3.72;;;-1.00;99.90;;;;;;5061969;28;20024;-75
2021/04/09 01:07:47;;;;;;;7.57;4.70;;;-1.10;99.90;;;;;;5060003;28;20037;-75
2021/04/09 01:10:16;;;;;;;7.93;4.43;;;-1.10;99.90;;;;;;5061099;28;20043;-75
2021/04/09 01:12:41;;;;;;;7.78;4.47;;;-1.00;99.90;;;;;;5060466;28;20028;-75
2021/04/09 01:15:09;;;;;;;7.10;3.90;;;-1.00;99.90;;;;;;5062658;28;20032;-75
2021/04/09 01:17:48;;;;;;;5.55;3.67;;;-1.10;99.90;;;;;;5060819;28;20029;-75
2021/04/09 01:20:43;;;;;;;10.05;3.90;;;-1.10;99.90;;;;;;5060554;28;20051;-75
2021/04/09 01:23:50;;;;;;;9.50;3.58;;;-1.10;99.90;;;;;;5060002;28;20025;-75
2021/04/09 01:26:46;;;;;;;7.78;4.15;;;-1.20;99.90;;;;;;4986147;28;20038;-75
2021/04/09 01:29:38;;;;;;;;;;;-1.20;99.90;;;;;;5093380;28;20134;-75
2021/04/09 01:32:06;;;;;;;5.63;3.60;;;-1.30;99.90;;;;;;5056967;28;19970;-75
2021/04/09 01:34:36;;;;;;;6.38;3.33;;;-1.30;99.90;;;;;;5060312;28;20048;-75
2021/04/09 01:37:25;;;;;;;6.60;3.40;;;-1.30;99.90;;;;;;5062385;28;20024;-75
2021/04/09 01:40:01;;;;;;;9.40;3.92;;;-1.30;99.90;;;;;;5060073;28;20043;-75
2021/04/09 01:42:28;;;;;;;7.63;3.40;;;-1.30;99.90;;;;;;5057198;28;20052;-75
2021/04/09 01:44:55;;;;;;;7.38;3.53;;;-1.30;99.90;;;;;;5061391;28;20777;-75
2021/04/09 01:47:23;;;;;;;6.28;4.00;;;-1.30;99.90;;;;;;5060958;28;20128;-75
2021/04/09 01:49:54;;;;;;;7.60;3.75;;;-1.30;99.90;;;;;;5060904;28;20473;-75
2021/04/09 01:52:21;;;;;;;6.60;3.75;;;-1.30;99.90;;;;;;5060024;28;20230;-75
2021/04/09 01:54:49;;;;;;;7.03;4.00;;;-1.40;99.90;;;;;;5063376;28;20458;-75
2021/04/09 01:57:18;;;;;;;6.20;3.60;;;-1.40;99.90;;;;;;5059239;28;20033;-75
2021/04/09 01:59:44;;;;;;;6.82;3.67;;;-1.40;99.90;;;;;;5061310;28;20450;-75
2021/04/09 02:02:13;;;;;;;5.93;3.78;;;-1.40;99.90;;;;;;5060715;28;20104;-75
2021/04/09 02:04:39;;;;;;;5.53;3.70;;;-1.40;99.90;;;;;;5060144;28;20060;-75
2021/04/09 02:07:06;;;;;;;6.03;3.50;;;-1.50;99.90;;;;;;5043996;28;20063;-75
2021/04/09 02:09:32;;;;;;;8.85;3.72;;;-1.50;99.90;;;;;;5061722;28;20098;-75
2021/04/09 02:12:00;;;;;;;5.80;3.45;;;-1.50;99.90;;;;;;5061404;28;20040;-75
2021/04/09 02:14:27;;;;;;;8.25;4.32;;;-1.50;99.90;;;;;;5060379;28;20091;-75
2021/04/09 02:16:54;;;;;;;6.05;4.53;;;-1.50;99.90;;;;;;5060155;28;20032;-75
2021/04/09 02:19:23;;;;;;;7.57;4.18;;;-1.50;99.90;;;;;;5061542;28;20024;-75
2021/04/09 02:21:49;;;;;;;5.10;3.60;;;-1.50;99.90;;;;;;5059878;28;20082;-75
2021/04/09 02:24:15;;;;;;;8.68;4.88;;;-1.40;99.90;;;;;;5059114;28;20036;-75
2021/04/09 02:26:41;;;;;;;7.55;3.85;;;-1.40;99.90;;;;;;5061247;28;20425;-75
2021/04/09 02:29:07;;;;;;;8.55;3.88;;;-1.40;99.90;;;;;;5060323;28;20179;-75
2021/04/09 02:31:33;;;;;;;7.43;4.47;;;-1.40;99.90;;;;;;5060693;28;20559;-75
2021/04/09 02:33:59;;;;;;;6.50;3.33;;;-1.50;99.90;;;;;;5059652;28;20025;-75
2021/04/09 02:36:27;;;;;;;9.23;4.60;;;-1.50;99.90;;;;;;5043290;28;20047;-75
2021/04/09 02:39:07;;;;;;;8.93;4.18;;;-1.40;99.90;;;;;;5059150;28;20089;-75
2021/04/09 02:41:36;;;;;;;7.35;3.85;;;-1.40;99.90;;;;;;5058631;28;20052;-75
2021/04/09 02:44:03;;;;;;;7.72;4.00;;;-1.40;99.90;;;;;;5059485;28;20032;-75
2021/04/09 02:46:52;;;;;;;5.88;3.90;;;-1.40;99.90;;;;;;5059083;28;20033;-75
2021/04/09 02:49:41;;;;;;;9.63;3.92;;;-1.50;99.90;;;;;;5060227;28;20037;-75
2021/04/09 02:52:15;;;;;;;8.05;3.95;;;-1.50;99.90;;;;;;5057071;28;20379;-75
2021/04/09 02:54:43;;;;;;;6.35;4.35;;;-1.50;99.90;;;;;;5059320;28;20645;-75
2021/04/09 02:57:11;;;;;;;7.97;4.38;;;-1.50;99.90;;;;;;5060611;28;20468;-75
2021/04/09 02:59:37;;;;;;;9.07;4.00;;;-1.40;99.90;;;;;;5059801;28;20037;-75
2021/04/09 03:02:05;;;;;;;5.47;3.35;;;-1.30;99.90;;;;;;5058392;28;20064;-75
2021/04/09 03:04:31;;;;;;;5.85;3.63;;;-1.30;99.90;;;;;;5057009;28;20104;-75
2021/04/09 03:06:58;;;;;;;10.98;4.80;;;-1.30;99.90;;;;;;5058776;28;20958;-76
2021/04/09 03:09:24;;;;;;;13.13;4.40;;;-1.20;99.90;;;;;;5060720;28;20390;-75
2021/04/09 03:11:50;;;;;;;5.82;3.92;;;-1.20;99.90;;;;;;5059455;28;20420;-76
2021/04/09 03:14:17;;;;;;;9.52;4.53;;;-1.20;99.90;;;;;;5059159;28;20028;-75
2021/04/09 03:16:48;;;;;;;13.02;4.35;;;-1.30;99.90;;;;;;5060423;28;20033;-76
2021/04/09 03:19:14;;;;;;;8.93;4.03;;;-1.20;99.90;;;;;;5056113;28;20032;-76
2021/04/09 03:21:40;;;;;;;13.68;4.57;;;-1.20;99.90;;;;;;5058218;28;20044;-76
2021/04/09 03:24:07;;;;;;;9.07;4.50;;;-1.30;99.90;;;;;;5060879;28;20059;-75
2021/04/09 03:26:32;;;;;;;6.15;3.92;;;-1.40;99.90;;;;;;5059167;28;20024;-75
2021/04/09 03:28:58;;;;;;;5.47;3.80;;;-1.40;99.90;;;;;;5058020;28;20393;-75
2021/04/09 03:31:24;;;;;;;7.22;4.28;;;-1.40;99.90;;;;;;5091588;28;20479;-75
2021/04/09 03:33:50;;;;;;;7.97;4.25;;;-1.40;99.90;;;;;;5060106;28;20475;-75
2021/04/09 03:36:17;;;;;;;6.35;4.18;;;-1.50;99.90;;;;;;5060270;28;20031;-75
2021/04/09 03:38:42;;;;;;;6.30;3.28;;;-1.50;99.90;;;;;;5059050;28;20111;-76
2021/04/09 03:41:08;;;;;;;6.78;4.63;;;-1.50;99.90;;;;;;5057882;28;20086;-76
2021/04/09 03:43:34;;;;;;;11.27;4.90;;;-1.50;99.90;;;;;;5059404;28;20021;-76
2021/04/09 03:45:59;;;;;;;10.88;4.30;;;-1.50;99.90;;;;;;5058640;28;20713;-75
2021/04/09 03:48:25;;;;;;;6.20;4.30;;;-1.60;99.90;;;;;;5056610;28;20037;-76
2021/04/09 03:50:51;;;;;;;8.70;4.63;;;-1.60;99.90;;;;;;5041039;28;20067;-76
2021/04/09 03:53:16;;;;;;;9.13;4.68;;;-1.60;99.90;;;;;;5059029;28;20450;-75
2021/04/09 03:55:42;;;;;;;9.10;4.80;;;-1.60;99.90;;;;;;5058513;28;20129;-76
2021/04/09 03:58:11;;;;;;;15.05;5.65;;;-1.60;99.90;;;;;;5059523;28;21043;-76
2021/04/09 04:00:36;;;;;;;9.73;4.85;;;-1.60;99.90;;;;;;5059370;28;20079;-75
2021/04/09 04:03:02;;;;;;;7.47;4.88;;;-1.60;99.90;;;;;;5058516;28;20032;-76
2021/04/09 04:05:28;;;;;;;11.65;4.55;;;-1.60;99.90;;;;;;5092491;28;20086;-76
2021/04/09 04:07:53;;;;;;;8.68;5.47;;;-1.70;99.90;;;;;;5057556;28;20037;-76
2021/04/09 04:10:19;;;;;;;11.68;5.65;;;-1.70;99.90;;;;;;5058155;28;20540;-76
2021/04/09 04:12:45;;;;;;;8.20;4.57;;;-1.60;99.90;;;;;;5042237;28;20039;-76
2021/04/09 04:15:11;;;;;;;8.05;4.60;;;-1.50;99.90;;;;;;5058985;28;20036;-76
2021/04/09 04:17:37;;;;;;;11.25;5.07;;;-1.40;99.90;;;;;;5058094;28;20070;-76
2021/04/09 04:20:04;;;;;;;9.70;4.95;;;-1.40;99.90;;;;;;5060442;28;20036;-75
2021/04/09 04:22:29;;;;;;;10.85;5.35;;;-1.40;99.90;;;;;;5056917;28;20083;-76
2021/04/09 04:24:55;;;;;;;11.88;5.45;;;-1.30;99.90;;;;;;5058961;28;20640;-76
2021/04/09 04:27:21;;;;;;;8.63;5.32;;;-1.40;99.90;;;;;;5059730;28;20089;-76
2021/04/09 04:29:46;;;;;;;8.75;5.13;;;-1.50;99.90;;;;;;5055607;28;20399;-76
2021/04/09 04:32:12;;;;;;;8.45;5.50;;;-1.50;99.90;;;;;;5058767;28;20032;-76
2021/04/09 04:34:38;;;;;;;12.50;5.55;;;-1.50;99.90;;;;;;5054882;28;20056;-76
2021/04/09 04:37:04;;;;;;;8.35;4.72;;;-1.50;99.90;;;;;;5058755;28;20037;-76
2021/04/09 04:39:29;;;;;;;10.40;5.00;;;-1.60;99.90;;;;;;5058987;28;20108;-76
2021/04/09 04:41:55;;;;;;;32.95;11.43;;;-1.60;99.90;;;;;;5056700;28;20483;-76
2021/04/09 04:44:21;;;;;;;54.60;18.90;;;-1.60;99.90;;;;;;5061218;28;20110;-76
2021/04/09 04:46:47;;;;;;;60.53;20.77;;;-1.60;99.90;;;;;;5056345;28;20029;-76
2021/04/09 04:49:12;;;;;;;41.72;13.98;;;-1.60;99.90;;;;;;5059117;28;20029;-76
2021/04/09 04:51:38;;;;;;;20.95;9.02;;;-1.50;99.90;;;;;;5056476;28;20055;-76
2021/04/09 04:54:04;;;;;;;20.05;8.98;;;-1.50;99.90;;;;;;5058877;28;20024;-76
2021/04/09 04:56:30;;;;;;;46.78;15.80;;;-1.50;99.90;;;;;;5041419;28;20537;-76
2021/04/09 04:58:56;;;;;;;24.05;10.48;;;-1.50;99.90;;;;;;5057622;28;20029;-76
2021/04/09 05:01:22;;;;;;;16.45;7.60;;;-1.50;99.90;;;;;;5058272;28;20059;-76
2021/04/09 05:03:48;;;;;;;14.35;7.05;;;-1.60;99.90;;;;;;5059583;28;20067;-76
2021/04/09 05:06:14;;;;;;;10.45;6.10;;;-1.60;99.90;;;;;;5061423;28;20021;-76
2021/04/09 05:08:40;;;;;;;11.38;6.10;;;-1.50;99.90;;;;;;5058618;28;20049;-76
2021/04/09 05:11:06;;;;;;;9.85;5.80;;;-1.60;99.90;;;;;;5039731;28;20115;-76
2021/04/09 05:13:31;;;;;;;18.33;9.35;;;-1.50;99.90;;;;;;5054344;28;20104;-76
2021/04/09 05:15:57;;;;;;;17.17;8.52;;;-1.40;99.90;;;;;;5055000;28;20075;-76
2021/04/09 05:18:22;;;;;;;12.95;7.85;;;-1.30;99.90;;;;;;5066756;28;20032;-76
2021/04/09 05:20:48;;;;;;;12.98;7.00;;;-1.30;99.90;;;;;;5057943;28;20043;-76
2021/04/09 05:23:14;;;;;;;14.02;7.38;;;-1.20;99.90;;;;;;5034259;28;20071;-76
2021/04/09 05:25:40;;;;;;;11.70;6.88;;;-1.20;99.90;;;;;;5052062;28;20021;-76
2021/04/09 05:28:05;;;;;;;12.73;6.13;;;-1.20;99.90;;;;;;5051683;28;20476;-76
2021/04/09 05:30:31;;;;;;;13.35;7.50;;;-1.20;99.90;;;;;;5050975;28;20135;-76
2021/04/09 05:32:57;;;;;;;13.73;8.00;;;-1.10;99.90;;;;;;5051617;28;20116;-76
2021/04/09 05:35:24;;;;;;;12.90;6.97;;;-1.00;99.90;;;;;;5052461;28;20033;-76
2021/04/09 05:37:51;;;;;;;13.88;7.05;;;-0.90;99.90;;;;;;5051892;28;20508;-75
2021/04/09 05:40:17;;;;;;;13.93;7.47;;;-0.90;99.90;;;;;;5051240;28;20029;-75
2021/04/09 05:42:43;;;;;;;13.82;7.78;;;-0.70;99.90;;;;;;5052041;28;20051;-76
2021/04/09 05:45:09;;;;;;;11.38;7.13;;;-0.60;99.90;;;;;;5052434;28;20025;-75
2021/04/09 05:47:35;;;;;;;11.85;6.82;;;-0.40;99.90;;;;;;5050434;28;20028;-75
2021/04/09 05:50:00;;;;;;;10.65;5.95;;;-0.30;99.90;;;;;;5052314;28;20395;-75
2021/04/09 05:52:26;;;;;;;10.35;5.75;;;-0.10;99.90;;;;;;5052472;28;20064;-76
2021/04/09 05:54:52;;;;;;;11.30;6.50;;;-0.10;99.90;;;;;;5064618;28;20032;-75
2021/04/09 05:57:17;;;;;;;12.93;7.28;;;0.10;99.90;;;;;;5060305;28;20566;-75
2021/04/09 05:59:44;;;;;;;13.85;7.10;;;0.30;99.90;;;;;;5062493;28;20043;-75
2021/04/09 06:02:10;;;;;;;11.82;6.70;;;0.50;99.90;;;;;;5060300;28;20060;-75
2021/04/09 06:04:35;;;;;;;10.55;5.95;;;0.80;99.90;;;;;;5059889;28;20056;-75
2021/04/09 06:07:01;;;;;;;13.60;6.68;;;0.90;99.90;;;;;;5060851;28;20047;-75
2021/04/09 06:09:26;;;;;;;12.80;6.45;;;1.00;99.90;;;;;;5061594;28;20036;-75
2021/04/09 06:11:52;;;;;;;15.35;6.80;;;1.00;99.90;;;;;;5060353;28;20032;-74
2021/04/09 06:14:19;;;;;;;12.57;6.40;;;1.10;99.90;;;;;;5059328;28;20025;-75
2021/04/09 06:16:45;;;;;;;11.23;6.13;;;1.30;99.90;;;;;;5064164;28;20021;-75
2021/04/09 06:19:11;;;;;;;14.07;7.78;;;1.40;99.90;;;;;;5069451;28;20090;-75
2021/04/09 06:21:36;;;;;;;13.13;6.32;;;1.60;99.90;;;;;;5069844;28;20033;-75
2021/04/09 06:24:06;;;;;;;14.55;6.95;;;1.80;99.90;;;;;;5069076;28;20036;-74
2021/04/09 06:26:33;;;;;;;13.65;6.60;;;2.10;99.90;;;;;;5068759;28;20056;-74
2021/04/09 06:28:58;;;;;;;12.77;7.35;;;2.20;99.90;;;;;;5070500;28;20041;-74
2021/04/09 06:31:24;;;;;;;13.15;6.43;;;2.20;99.90;;;;;;5092242;28;20035;-74
2021/04/09 06:33:50;;;;;;;14.38;6.80;;;2.30;99.90;;;;;;5068827;28;20042;-74
2021/04/09 06:36:16;;;;;;;10.30;6.03;;;2.30;99.90;;;;;;5066718;28;20471;-74
2021/04/09 06:38:41;;;;;;;12.60;6.95;;;2.40;99.90;;;;;;5070229;28;20036;-74
2021/04/09 06:41:09;;;;;;;10.88;6.68;;;2.40;99.90;;;;;;5063550;28;20042;-74
2021/04/09 06:43:37;;;;;;;9.25;6.07;;;2.50;99.90;;;;;;5070183;28;20028;-74
2021/04/09 06:46:03;;;;;;;12.43;7.20;;;2.50;99.90;;;;;;5065234;28;20035;-74
2021/04/09 06:48:29;;;;;;;12.80;6.28;;;2.50;99.90;;;;;;5068887;28;20036;-73
2021/04/09 06:50:55;;;;;;;12.35;6.53;;;2.60;99.90;;;;;;5057454;28;20024;-73
2021/04/09 06:53:21;;;;;;;12.73;7.30;;;2.70;99.90;;;;;;5055876;28;20108;-73
2021/04/09 06:55:47;;;;;;;9.15;6.20;;;2.90;99.90;;;;;;5056956;28;20028;-74
2021/04/09 06:58:17;;;;;;;13.27;7.32;;;3.00;99.90;;;;;;5060029;28;20047;-73
2021/04/09 07:00:43;;;;;;;9.63;6.25;;;3.10;99.90;;;;;;5060181;28;20033;-73
2021/04/09 07:03:10;;;;;;;11.10;7.15;;;3.20;99.90;;;;;;5040203;28;20101;-73
2021/04/09 07:05:37;;;;;;;11.90;7.93;;;3.30;99.90;;;;;;5058044;28;20103;-73
2021/04/09 07:08:04;;;;;;;13.15;6.90;;;3.50;99.90;;;;;;5053624;28;20031;-73
2021/04/09 07:10:29;;;;;;;14.23;6.85;;;3.70;99.90;;;;;;5057640;28;20029;-71
2021/04/09 07:13:11;;;;;;;14.45;7.22;;;4.20;99.90;;;;;;5055458;28;20091;-71
2021/04/09 07:15:43;;;;;;;10.00;6.38;;;4.70;99.90;;;;;;5054943;28;20036;-71
2021/04/09 07:18:12;;;;;;;9.05;5.63;;;5.00;99.90;;;;;;5055759;28;20029;-71
2021/04/09 07:20:39;;;;;;;11.88;6.72;;;5.20;99.90;;;;;;5060787;28;20476;-71
2021/04/09 07:23:06;;;;;;;11.25;5.97;;;5.00;99.90;;;;;;5058730;28;20584;-72
2021/04/09 07:25:33;;;;;;;12.90;6.30;;;4.90;99.90;;;;;;5057371;28;20387;-73
2021/04/09 07:28:24;;;;;;;12.13;7.55;;;4.90;99.90;;;;;;5059536;28;20021;-73
2021/04/09 07:30:54;;;;;;;10.88;5.95;;;5.10;99.90;;;;;;5045155;28;20040;-73
2021/04/09 07:33:22;;;;;;;13.15;6.85;;;5.30;99.90;;;;;;5074722;28;20443;-74
2021/04/09 07:35:54;;;;;;;10.98;6.60;;;5.20;99.90;;;;;;5056051;28;20020;-71
2021/04/09 07:38:26;;;;;;;12.25;6.95;;;5.30;99.90;;;;;;5059840;28;20056;-71
2021/04/09 07:41:06;;;;;;;12.63;6.30;;;5.40;99.90;;;;;;5056889;28;20442;-72
2021/04/09 07:43:34;;;;;;;9.90;6.60;;;5.60;99.90;;;;;;5089658;28;20028;-71
2021/04/09 07:46:02;;;;;;;10.50;6.05;;;5.80;99.90;;;;;;5059665;28;20031;-72
2021/04/09 07:48:38;;;;;;;10.00;6.28;;;6.00;99.90;;;;;;5052347;28;20117;-73
2021/04/09 07:51:06;;;;;;;10.73;6.53;;;6.10;99.90;;;;;;5060374;28;20036;-73
2021/04/09 07:53:31;;;;;;;9.93;6.40;;;6.20;99.90;;;;;;5058961;28;20036;-74
2021/04/09 07:56:15;;;;;;;11.85;6.60;;;6.20;99.90;;;;;;5062934;28;20025;-73
2021/04/09 07:58:42;;;;;;;15.75;8.65;;;6.50;99.90;;;;;;5059753;28;20029;-74
2021/04/09 08:01:27;;;;;;;10.50;6.68;;;6.80;99.90;;;;;;5054645;28;20020;-74
2021/04/09 08:03:54;;;;;;;11.77;6.28;;;7.30;99.90;;;;;;5055812;28;20021;-74
2021/04/09 08:06:22;;;;;;;11.02;6.00;;;7.50;99.90;;;;;;5058127;28;20024;-73
2021/04/09 08:08:48;;;;;;;13.13;7.03;;;7.20;99.90;;;;;;5056209;28;20032;-74
2021/04/09 08:11:29;;;;;;;12.38;6.50;;;7.30;99.90;;;;;;5059945;28;20017;-73
2021/04/09 08:14:12;;;;;;;7.72;5.13;;;7.40;99.90;;;;;;5058720;28;20031;-73
2021/04/09 08:16:50;;;;;;;6.82;4.38;;;7.70;99.90;;;;;;5054538;28;20052;-73
2021/04/09 08:19:22;;;;;;;8.45;5.07;;;7.90;99.90;;;;;;5055554;28;20479;-73
2021/04/09 08:21:52;;;;;;;9.90;4.90;;;8.10;99.90;;;;;;5054364;28;20484;-73
2021/04/09 08:24:37;;;;;;;10.18;5.32;;;8.40;99.90;;;;;;5058012;28;20029;-73
2021/04/09 08:27:03;;;;;;;10.75;5.22;;;8.50;97.80;;;;;;5064025;28;20033;-73
2021/04/09 08:29:31;;;;;;;7.75;5.22;;;8.50;99.90;;;;;;5040476;28;20986;-73
2021/04/09 08:31:58;;;;;;;10.30;5.07;;;8.60;97.80;;;;;;5060566;28;20079;-74
2021/04/09 08:34:24;;;;;;;6.90;4.88;;;8.70;97.40;;;;;;5059693;28;20475;-74
2021/04/09 08:36:51;;;;;;;7.20;4.93;;;8.70;99.90;;;;;;5059151;28;20023;-73
2021/04/09 08:39:18;;;;;;;8.23;4.53;;;8.90;99.90;;;;;;5056624;28;20052;-72
2021/04/09 08:41:48;;;;;;;9.80;5.30;;;8.90;95.40;;;;;;5058454;28;20502;-71
2021/04/09 08:44:14;;;;;;;7.75;4.88;;;8.50;93.40;;;;;;5060097;28;20401;-71
2021/04/09 08:46:41;;;;;;;6.60;4.60;;;8.40;97.50;;;;;;5059878;28;20037;-71
2021/04/09 08:49:08;;;;;;;10.05;4.68;;;8.40;93.90;;;;;;5055572;28;20035;-71
2021/04/09 08:51:36;;;;;;;5.78;3.78;;;8.40;97.40;;;;;;5056412;28;20082;-72
2021/04/09 08:54:31;;;;;;;6.00;4.18;;;8.50;96.30;;;;;;5059699;28;20517;-72
2021/04/09 08:57:01;;;;;;;6.55;4.22;;;8.70;95.00;;;;;;5055487;28;20522;-72
2021/04/09 08:59:47;;;;;;;6.07;3.60;;;8.90;98.50;;;;;;5057364;28;20047;-72
2021/04/09 09:02:15;;;;;;;6.78;3.80;;;9.10;97.50;;;;;;5054526;28;20037;-72
2021/04/09 09:04:57;;;;;;;9.63;3.70;;;9.20;94.50;;;;;;5059486;28;20051;-71
2021/04/09 09:07:44;;;;;;;5.68;3.72;;;9.30;99.30;;;;;;5055704;28;20033;-71
2021/04/09 09:10:21;;;;;;;7.65;4.05;;;9.40;94.50;;;;;;5055001;28;20040;-71
2021/04/09 09:13:02;;;;;;;8.52;4.07;;;9.30;91.40;;;;;;5059116;28;20025;-72
2021/04/09 09:15:43;;;;;;;7.72;3.72;;;9.40;95.10;;;;;;5058666;28;20456;-72
2021/04/09 09:21:14;;;;;;;8.10;4.07;;;9.50;92.80;;;;;;5061099;28;20614;-71
2021/04/09 09:24:19;;;;;;;8.13;4.13;;;9.50;94.70;;;;;;5056078;28;20048;-71
2021/04/09 09:26:49;;;;;;;6.47;3.88;;;9.50;92.20;;;;;;5059943;28;20043;-71
2021/04/09 09:29:28;;;;;;;5.82;3.85;;;9.60;93.20;;;;;;5060199;28;20028;-71
2021/04/09 09:31:57;;;;;;;7.32;3.63;;;9.70;95.00;;;;;;5059437;28;20436;-71
2021/04/09 09:34:24;;;;;;;5.40;3.60;;;9.80;95.20;;;;;;5056728;28;20476;-71
2021/04/09 09:37:36;;;;;;;7.55;3.45;;;10.00;94.50;;;;;;5055110;28;20111;-71
2021/04/09 09:40:06;;;;;;;6.13;3.50;;;10.10;86.70;;;;;;5049317;28;20032;-71
2021/04/09 09:42:35;;;;;;;5.60;3.95;;;10.20;90.90;;;;;;5046187;28;20039;-71
2021/04/09 09:45:31;;;;;;;5.28;3.47;;;10.20;91.30;;;;;;5050870;28;20079;-71
2021/04/09 09:48:15;;;;;;;7.13;3.58;;;10.40;91.40;;;;;;5055494;28;20025;-71
2021/04/09 09:50:41;;;;;;;5.75;3.47;;;10.50;87.20;;;;;;5052383;28;20400;-71
2021/04/09 09:53:06;;;;;;;6.75;3.72;;;10.60;91.60;;;;;;5050798;28;20025;-72
2021/04/09 09:55:35;;;;;;;6.38;3.40;;;10.60;91.40;;;;;;5058645;28;20452;-71
2021/04/09 09:58:04;;;;;;;5.30;3.90;;;10.60;87.20;;;;;;5060380;28;20052;-71
2021/04/09 10:00:37;;;;;;;4.28;2.97;;;10.60;92.10;;;;;;5053000;28;20104;-72
2021/04/09 10:03:19;;;;;;;4.68;3.17;;;10.60;88.60;;;;;;5058138;28;20021;-71
2021/04/09 10:05:50;;;;;;;6.90;3.20;;;10.70;86.20;;;;;;5058319;28;20032;-72
2021/04/09 10:08:17;;;;;;;6.70;3.45;;;10.80;84.00;;;;;;5057288;28;20496;-71
2021/04/09 10:10:48;;;;;;;4.05;2.47;;;10.90;80.50;;;;;;5060264;28;20024;-72
2021/04/09 10:13:27;;;;;;;4.35;2.80;;;11.00;86.90;;;;;;5086014;28;20450;-72
2021/04/09 10:16:11;;;;;;;6.85;2.67;;;11.00;77.20;;;;;;5057693;28;20033;-72
2021/04/09 10:18:41;;;;;;;7.28;3.20;;;11.00;68.30;;;;;;5055549;28;20059;-72
2021/04/09 10:21:18;;;;;;;4.82;2.90;;;10.90;73.60;;;;;;5057681;28;20044;-72
2021/04/09 10:23:46;;;;;;;4.28;2.78;;;11.00;74.70;;;;;;5060531;28;20041;-71
2021/04/09 10:26:13;;;;;;;4.22;3.10;;;11.10;68.30;;;;;;5059813;28;20024;-72
2021/04/09 10:28:42;;;;;;;3.88;3.03;;;11.30;77.20;;;;;;5057025;28;20032;-72
2021/04/09 10:31:14;;;;;;;6.60;2.80;;;11.40;73.50;;;;;;5055006;28;20028;-71
2021/04/09 10:33:41;;;;;;;5.40;2.75;;;11.50;74.40;;;;;;5054469;28;20092;-71
2021/04/09 10:36:23;;;;;;;5.03;2.80;;;11.60;71.10;;;;;;5050360;28;20102;-72
2021/04/09 10:38:51;;;;;;;4.00;2.70;;;11.60;66.70;;;;;;5053178;28;20039;-71
2021/04/09 10:41:23;;;;;;;4.32;2.50;;;11.60;68.40;;;;;;5054170;28;20036;-71
2021/04/09 10:44:05;;;;;;;5.32;3.33;;;11.60;75.10;;;;;;5057928;28;20028;-71
2021/04/09 10:46:35;;;;;;;3.65;2.78;;;11.60;69.00;;;;;;5057457;28;20033;-72
2021/04/09 10:49:04;;;;;;;5.28;3.08;;;11.60;69.90;;;;;;5061730;28;20047;-71
2021/04/09 10:51:33;;;;;;;3.63;2.60;;;11.70;75.90;;;;;;5055750;28;20028;-72
2021/04/09 10:53:59;;;;;;;5.28;2.63;;;11.80;73.30;;;;;;5052496;28;20021;-71
2021/04/09 10:56:25;;;;;;;6.47;2.65;;;11.90;69.20;;;;;;5054493;28;20012;-71
2021/04/09 10:58:51;;;;;;;4.28;2.95;;;12.00;68.90;;;;;;5054743;28;20065;-71
2021/04/09 11:01:22;;;;;;;5.03;2.80;;;12.00;68.90;;;;;;5050595;28;20111;-71
2021/04/09 11:03:48;;;;;;;6.38;2.80;;;12.00;67.40;;;;;;5053214;28;20626;-71
2021/04/09 11:06:18;;;;;;;5.05;2.38;;;12.20;63.60;;;;;;5045928;28;20115;-72
2021/04/09 11:08:44;;;;;;;8.25;2.83;;;12.20;58.40;;;;;;5053994;28;20072;-72
2021/04/09 11:11:14;;;;;;;2.95;2.53;;;12.30;63.30;;;;;;5058418;28;20463;-71
2021/04/09 11:13:42;;;;;;;3.90;2.10;;;12.40;64.80;;;;;;5057246;28;20037;-72
2021/04/09 11:16:11;;;;;;;4.60;2.97;;;12.50;66.10;;;;;;5055574;28;20059;-71
2021/04/09 11:19:05;;;;;;;4.82;2.80;;;12.50;58.40;;;;;;5052903;28;20040;-71
2021/04/09 11:21:48;;;;;;;5.28;3.03;;;12.60;63.70;;;;;;5053237;28;20025;-72
2021/04/09 11:24:20;;;;;;;6.95;2.97;;;12.60;60.60;;;;;;5090591;28;20410;-72
2021/04/09 11:26:46;;;;;;;8.13;3.08;;;12.80;57.80;;;;;;5049171;28;20025;-72
2021/04/09 11:29:23;;;;;;;6.30;3.10;;;13.10;67.60;;;;;;5050607;28;20025;-71
2021/04/09 11:31:50;;;;;;;5.20;2.85;;;13.30;62.30;;;;;;5051161;28;20507;-72
2021/04/09 11:34:16;;;;;;;4.75;2.70;;;13.30;60.90;;;;;;5052906;28;20116;-71
2021/04/09 11:36:48;;;;;;;5.00;2.75;;;13.30;60.80;;;;;;5050203;28;20033;-71
2021/04/09 11:39:17;;;;;;;4.05;2.63;;;13.20;55.50;;;;;;5048724;28;20033;-72
2021/04/09 11:41:55;;;;;;;4.93;2.92;;;13.30;58.60;;;;;;5053141;28;20047;-72
2021/04/09 11:44:35;;;;;;;6.70;3.45;;;13.20;53.60;;;;;;5087603;28;20681;-72
2021/04/09 11:47:28;;;;;;;5.43;3.42;;;13.30;59.80;;;;;;5055608;28;20036;-71
2021/04/09 11:50:09;;;;;;;3.60;2.72;;;13.30;53.00;;;;;;5056216;28;20037;-72
2021/04/09 11:53:10;;;;;;;5.30;3.08;;;13.30;59.90;;;;;;5054059;28;20495;-72
2021/04/09 11:55:40;;;;;;;6.57;3.00;;;13.40;57.90;;;;;;5008239;28;20044;-71
2021/04/09 11:58:42;;;;;;;3.88;2.60;;;13.40;59.00;;;;;;5055639;28;20034;-72
2021/04/09 12:01:08;;;;;;;5.10;2.83;;;13.50;59.70;;;;;;5068127;28;20052;-72
2021/04/09 12:03:41;;;;;;;6.53;3.67;;;13.40;57.40;;;;;;5050415;28;20051;-71
2021/04/09 12:06:18;;;;;;;6.43;3.42;;;13.50;58.40;;;;;;5064344;28;20365;-71
2021/04/09 12:08:45;;;;;;;5.03;3.63;;;13.50;57.70;;;;;;5061679;28;20097;-71
2021/04/09 12:11:11;;;;;;;4.00;2.80;;;13.30;57.00;;;;;;5066928;28;20468;-73
2021/04/09 12:13:39;;;;;;;5.07;2.97;;;13.30;58.60;;;;;;5057306;28;20028;-73
2021/04/09 12:16:07;;;;;;;5.07;3.35;;;13.30;60.50;;;;;;5064045;28;20037;-73
2021/04/09 12:18:33;;;;;;;4.90;3.25;;;13.40;57.70;;;;;;5061346;28;20513;-73
2021/04/09 12:20:59;;;;;;;6.05;3.15;;;13.30;59.90;;;;;;5059314;28;20028;-73
2021/04/09 12:23:25;;;;;;;6.57;3.83;;;13.30;59.50;;;;;;5072864;28;20032;-73
2021/04/09 12:25:57;;;;;;;5.53;3.58;;;13.30;54.40;;;;;;5055016;28;20451;-74
2021/04/09 12:28:23;;;;;;;7.18;3.80;;;13.30;59.20;;;;;;5052831;28;20402;-73
2021/04/09 12:30:51;;;;;;;6.78;3.65;;;13.30;58.90;;;;;;5053916;28;20028;-71
2021/04/09 12:33:17;;;;;;;4.75;2.92;;;13.30;57.50;;;;;;5056122;28;20142;-71
2021/04/09 12:35:43;;;;;;;5.38;3.50;;;13.40;58.90;;;;;;5059911;28;20391;-71
2021/04/09 12:38:09;;;;;;;5.38;3.88;;;13.50;58.50;;;;;;5053763;28;20044;-71
2021/04/09 12:40:34;;;;;;;4.95;3.40;;;13.50;60.60;;;;;;5057645;28;20111;-72
2021/04/09 12:43:00;;;;;;;5.40;3.67;;;13.50;63.30;;;;;;5060681;28;20561;-72
2021/04/09 12:45:26;;;;;;;7.68;3.60;;;13.50;60.50;;;;;;5060977;28;20037;-72
2021/04/09 12:47:52;;;;;;;6.60;3.63;;;13.60;59.90;;;;;;5040437;28;20099;-72
2021/04/09 12:50:17;;;;;;;8.85;3.40;;;13.60;54.60;;;;;;5056864;28;20056;-71
2021/04/09 12:52:43;;;;;;;5.80;3.50;;;13.70;57.00;;;;;;5049245;28;20064;-72
2021/04/09 12:55:10;;;;;;;5.93;4.05;;;13.80;58.10;;;;;;5054522;28;20087;-71
2021/04/09 12:57:36;;;;;;;10.02;4.93;;;13.90;58.80;;;;;;5052837;28;20029;-71
2021/04/09 13:00:05;;;;;;;6.75;3.90;;;14.00;55.30;;;;;;5052803;28;20052;-71
2021/04/09 13:02:31;;;;;;;6.63;4.00;;;14.00;58.90;;;;;;5048666;28;20643;-72